Time;durP1;ratioP1;P1;durP2;ratioP2;P2;SDS_P1;SDS_P2;PMS_P1;PMS_P2;Temp;Humidity;BMP_temperature;BMP_pressure;BME280_temperature;BME280_humidity;BME280_pressure;Samples;Min_cycle;Max_cycle;Signal;HPM_P1;HPM_P2
2022/03/12 00:00:04;;;;;;;29.90;18.80;;;;;;;-3.92;56.27;101730.14;1603277;88;21176;-90
2022/03/12 00:02:34;;;;;;;30.43;19.63;;;;;;;-3.93;56.40;101731.06;1605504;88;21084;-89
2022/03/12 00:05:07;;;;;;;37.50;21.33;;;;;;;-3.90;56.81;101724.41;1603436;88;21164;-90
2022/03/12 00:07:30;;;;;;;24.03;16.77;;;;;;;-3.89;56.76;101723.52;1602550;88;21116;-89
2022/03/12 00:09:57;;;;;;;;;;;;;;;-3.84;57.21;101720.71;1606043;88;21084;-89
2022/03/12 00:12:25;;;;;;;29.10;18.15;;;;;;;-3.75;57.43;101718.61;1577821;88;20226;-90
2022/03/12 00:14:52;;;;;;;30.63;16.57;;;;;;;-3.69;57.20;101723.16;1553874;91;21114;-88
2022/03/12 00:17:21;;;;;;;30.33;19.17;;;;;;;-3.65;57.05;101712.56;1546294;92;21574;-89
2022/03/12 00:19:48;;;;;;;34.63;19.67;;;;;;;-3.60;57.13;101708.45;1569936;90;21146;-87
2022/03/12 00:22:15;;;;;;;31.10;18.52;;;;;;;-3.56;57.19;101704.36;1567864;89;21114;-90
2022/03/12 00:24:47;;;;;;;29.77;18.17;;;;;;;-3.51;57.11;101702.86;1564952;91;21173;-88
2022/03/12 00:27:10;;;;;;;30.80;18.40;;;;;;;-3.49;57.22;101701.49;1565340;90;21085;-90
2022/03/12 00:29:38;;;;;;;30.77;17.57;;;;;;;-3.45;57.30;101696.07;1552440;91;21200;-89
2022/03/12 00:32:07;;;;;;;29.37;17.70;;;;;;;-3.45;57.21;101698.68;1553479;90;21393;-88
2022/03/12 00:34:34;;;;;;;26.90;17.13;;;;;;;-3.46;57.31;101693.09;1590550;88;21104;-89
2022/03/12 00:37:00;;;;;;;23.20;16.17;;;;;;;-3.42;57.41;101688.59;1597492;88;21581;-90
2022/03/12 00:39:27;;;;;;;;;;;;;;;-3.42;57.43;101684.69;1602793;89;21424;-88
2022/03/12 00:41:55;;;;;;;26.13;15.80;;;;;;;-3.44;57.50;101679.53;1585315;90;20826;-89
2022/03/12 00:44:22;;;;;;;30.27;18.85;;;;;;;-3.52;57.75;101680.33;1598201;88;21056;-90
2022/03/12 00:46:49;;;;;;;38.08;23.22;;;;;;;-3.55;58.04;101673.92;1589787;89;21177;-89
2022/03/12 00:49:16;;;;;;;;;;;;;;;-3.58;58.21;101678.83;1596615;89;21651;-89
2022/03/12 00:51:44;;;;;;;53.17;30.17;;;;;;;-3.58;58.42;101672.73;1589706;89;20166;-88
2022/03/12 00:54:14;;;;;;;58.30;33.63;;;;;;;-3.64;58.61;101672.54;1584834;89;21107;-89
2022/03/12 00:56:40;;;;;;;;;;;;;;;-3.66;58.77;101668.31;1628291;87;21051;-88
2022/03/12 00:59:07;;;;;;;73.97;42.97;;;;;;;-3.69;58.91;101664.09;1626183;87;20132;-90
2022/03/12 01:01:34;;;;;;;73.47;42.30;;;;;;;-3.76;59.06;101668.69;1637593;86;21220;-88
2022/03/12 01:04:03;;;;;;;87.73;49.27;;;;;;;-3.79;59.20;101667.97;1614034;87;21070;-90
2022/03/12 01:06:30;;;;;;;86.13;51.07;;;;;;;-3.79;59.36;101670.11;1639945;87;21094;-87
2022/03/12 01:08:57;;;;;;;80.62;47.73;;;;;;;-3.83;59.29;101667.25;1606846;87;21788;-88
2022/03/12 01:11:24;;;;;;;76.27;44.53;;;;;;;-3.86;59.44;101662.18;1618184;87;21122;-88
2022/03/12 01:13:50;;;;;;;;;;;;;;;-3.87;59.66;101664.84;1610894;87;21058;-88
2022/03/12 01:16:18;;;;;;;79.17;42.70;;;;;;;-3.87;59.70;101663.08;1618564;87;20128;-88
2022/03/12 01:18:45;;;;;;;71.00;42.83;;;;;;;-3.93;59.80;101655.52;1610259;87;21075;-88
2022/03/12 01:21:17;;;;;;;65.32;37.35;;;;;;;-3.92;59.85;101661.11;1619790;86;21067;-89
2022/03/12 01:23:49;;;;;;;60.27;35.17;;;;;;;-3.94;59.81;101657.72;1623447;84;21027;-87
2022/03/12 01:26:20;;;;;;;59.97;33.63;;;;;;;-3.96;59.80;101659.54;1640176;84;21126;-88
2022/03/12 01:28:48;;;;;;;57.80;32.43;;;;;;;-3.96;59.69;101663.45;1593013;88;21088;-89
2022/03/12 01:31:15;;;;;;;;;;;;;;;-3.94;59.65;101664.23;1614854;86;21083;-89
2022/03/12 01:33:42;;;;;;;49.27;27.93;;;;;;;-3.93;59.67;101652.91;1624228;87;20207;-88
2022/03/12 01:36:09;;;;;;;47.45;27.73;;;;;;;-3.95;59.59;101658.19;1599041;89;21108;-89
2022/03/12 01:38:48;;;;;;;44.20;26.43;;;;;;;-3.86;59.05;101656.09;1607592;88;21118;-87
2022/03/12 01:41:21;;;;;;;;;;;;;;;-3.74;58.60;101662.12;1611581;88;21121;-88
2022/03/12 01:43:54;;;;;;;49.83;26.83;;;;;;;-3.66;58.42;101656.59;1612404;83;20163;-88
2022/03/12 01:46:34;;;;;;;37.93;24.80;;;;;;;-3.65;58.40;101654.39;1611374;84;21033;-88
2022/03/12 01:49:05;;;;;;;42.27;24.70;;;;;;;-3.59;58.11;101654.12;1610142;85;21535;-88
2022/03/12 01:51:32;;;;;;;41.63;24.03;;;;;;;-3.53;58.16;101651.24;1607094;88;21091;-88
2022/03/12 01:53:58;;;;;;;;;;;;;;;-3.47;57.92;101652.74;1629079;87;21048;-86
2022/03/12 01:56:28;;;;;;;43.97;26.73;;;;;;;-3.45;57.73;101647.84;1628955;86;20130;-87
2022/03/12 01:58:55;;;;;;;40.57;25.47;;;;;;;-3.52;57.81;101647.28;1608907;88;21158;-89
2022/03/12 02:01:22;;;;;;;44.37;27.40;;;;;;;-3.55;57.60;101650.00;1611908;86;21137;-89
2022/03/12 02:03:49;;;;;;;40.83;26.13;;;;;;;-3.53;57.51;101655.16;1611098;88;21169;-87
2022/03/12 02:06:19;;;;;;;46.83;27.40;;;;;;;-3.52;57.37;101650.34;1609579;88;21087;-90
2022/03/12 02:08:58;;;;;;;42.03;28.33;;;;;;;-3.50;57.25;101651.56;1591727;89;21039;-89
2022/03/12 02:11:29;;;;;;;38.60;25.57;;;;;;;-3.55;57.13;101637.44;1635113;81;21024;-88
2022/03/12 02:14:09;;;;;;;39.00;27.00;;;;;;;-3.48;56.99;101644.08;1599003;85;21079;-88
2022/03/12 02:16:37;;;;;;;43.00;26.53;;;;;;;-3.45;56.73;101647.84;1591922;88;21086;-88
2022/03/12 02:19:05;;;;;;;43.53;28.30;;;;;;;-3.42;56.49;101645.12;1608696;88;21756;-89
2022/03/12 02:21:38;;;;;;;39.93;27.90;;;;;;;-3.45;56.22;101637.41;1578759;89;21543;-89
2022/03/12 02:24:11;;;;;;;42.00;27.90;;;;;;;-3.47;56.16;101636.64;1610013;88;21154;-89
2022/03/12 02:26:42;;;;;;;40.63;28.43;;;;;;;-3.47;56.16;101639.24;1598855;88;21086;-88
2022/03/12 02:29:19;;;;;;;44.73;26.33;;;;;;;-3.46;56.11;101637.51;1608707;88;21057;-88
2022/03/12 02:31:49;;;;;;;45.23;27.90;;;;;;;-3.47;55.81;101631.42;1604954;88;21131;-89
2022/03/12 02:34:23;;;;;;;42.13;27.73;;;;;;;-3.50;55.70;101625.06;1578412;88;21601;-89
2022/03/12 02:36:50;;;;;;;45.87;28.53;;;;;;;-3.50;55.46;101625.06;1616460;88;21911;-89
2022/03/12 02:39:20;;;;;;;49.10;29.97;;;;;;;-3.52;55.44;101629.49;1578340;89;21472;-88
2022/03/12 02:41:47;;;;;;;42.77;28.10;;;;;;;-3.56;55.31;101620.95;1578451;89;21155;-89
2022/03/12 02:44:22;;;;;;;45.50;29.53;;;;;;;-3.60;55.31;101615.92;1578340;89;21125;-89
2022/03/12 02:47:17;;;;;;;46.03;27.80;;;;;;;-3.63;55.14;101614.77;1608836;88;21119;-89
2022/03/12 02:49:53;;;;;;;51.43;28.80;;;;;;;-3.67;55.13;101613.19;1595951;88;21109;-88
2022/03/12 02:52:26;;;;;;;43.90;30.00;;;;;;;-3.70;55.25;101608.12;1608733;88;21037;-89
2022/03/12 02:54:58;;;;;;;54.67;31.23;;;;;;;-3.72;55.32;101611.62;1596645;88;21158;-88
2022/03/12 02:57:26;;;;;;;46.20;30.73;;;;;;;-3.72;55.07;101609.48;1628649;85;21227;-89
2022/03/12 02:59:55;;;;;;;52.53;32.20;;;;;;;-3.73;54.94;101599.52;1623196;84;21333;-89
2022/03/12 03:02:31;;;;;;;50.87;34.70;;;;;;;-3.72;54.81;101596.45;1618865;83;21110;-87
2022/03/12 03:04:55;;;;;;;53.90;35.23;;;;;;;-3.75;54.78;101584.41;1591191;88;21098;-88
2022/03/12 03:07:23;;;;;;;48.17;32.73;;;;;;;-3.74;54.76;101584.79;1596006;88;21022;-88
2022/03/12 03:09:50;;;;;;;49.47;33.70;;;;;;;-3.71;54.84;101589.05;1609255;88;21058;-89
2022/03/12 03:12:21;;;;;;;51.37;33.53;;;;;;;-3.66;54.52;101588.83;1602708;88;21195;-88
2022/03/12 03:14:48;;;;;;;54.70;35.10;;;;;;;-3.62;54.30;101583.41;1609105;88;21051;-89
2022/03/12 03:17:18;;;;;;;51.83;38.00;;;;;;;-3.56;54.21;101582.30;1608840;89;21086;-88
2022/03/12 03:19:48;;;;;;;55.53;37.33;;;;;;;-3.52;53.95;101584.72;1607553;88;21105;-89
2022/03/12 03:22:15;;;;;;;56.23;37.60;;;;;;;-3.42;53.59;101580.41;1608564;88;21146;-88
2022/03/12 03:24:42;;;;;;;54.03;37.65;;;;;;;-3.37;53.37;101577.98;1607890;88;21047;-89
2022/03/12 03:27:09;;;;;;;54.87;37.43;;;;;;;-3.32;52.92;101576.00;1594561;88;21055;-88
2022/03/12 03:29:36;;;;;;;57.37;37.50;;;;;;;-3.27;52.87;101573.66;1585550;89;21160;-90
2022/03/12 03:32:03;;;;;;;;;;;;;;;-3.17;52.71;101571.02;1610634;88;21538;-89
2022/03/12 03:34:33;;;;;;;56.02;34.78;;;;;;;-3.10;52.16;101565.08;1605263;88;20146;-89
2022/03/12 03:37:00;;;;;;;52.63;34.90;;;;;;;-3.09;51.90;101562.37;1604154;89;21615;-89
2022/03/12 03:39:29;;;;;;;55.90;35.47;;;;;;;-3.04;51.59;101563.02;1604320;89;21098;-89
2022/03/12 03:41:57;;;;;;;45.50;32.43;;;;;;;-2.95;51.24;101559.98;1604231;89;21147;-88
2022/03/12 03:44:29;;;;;;;55.03;34.97;;;;;;;-2.84;50.72;101558.66;1604680;88;21106;-88
2022/03/12 03:46:57;;;;;;;52.90;34.20;;;;;;;-2.81;50.63;101559.33;1606911;88;21106;-89
2022/03/12 03:49:24;;;;;;;;;;;;;;;-2.75;50.51;101558.20;1610082;88;21084;-87
2022/03/12 03:51:56;;;;;;;64.20;37.23;;;;;;;-2.71;50.35;101557.59;1605724;88;20205;-88
2022/03/12 03:54:21;;;;;;;72.47;43.07;;;;;;;-2.71;50.26;101553.25;1609290;88;21077;-90
2022/03/12 03:56:50;;;;;;;73.07;42.83;;;;;;;-2.64;50.11;101555.92;1614839;87;21132;-89
2022/03/12 03:59:19;;;;;;;80.23;47.40;;;;;;;-2.61;50.14;101558.40;1566294;89;21075;-88
2022/03/12 04:01:47;;;;;;;90.47;52.57;;;;;;;-2.56;49.77;101547.29;1588633;88;21255;-87
2022/03/12 04:04:14;;;;;;;97.83;55.20;;;;;;;-2.53;49.63;101546.75;1639570;87;21584;-89
2022/03/12 04:06:41;;;;;;;100.30;56.23;;;;;;;-2.48;49.44;101546.08;1625682;88;21596;-89
2022/03/12 04:09:09;;;;;;;81.53;48.83;;;;;;;-2.42;49.25;101540.08;1643357;87;21083;-89
2022/03/12 04:11:38;;;;;;;89.50;50.17;;;;;;;-2.35;48.89;101540.64;1645212;86;21454;-88
2022/03/12 04:14:05;;;;;;;79.00;44.93;;;;;;;-2.36;48.77;101540.23;1643899;86;21147;-88
2022/03/12 04:16:36;;;;;;;66.43;36.93;;;;;;;-2.37;48.63;101543.79;1644695;86;21167;-88
2022/03/12 04:19:05;;;;;;;74.40;44.13;;;;;;;-2.42;48.50;101543.16;1633462;86;21246;-89
2022/03/12 04:21:34;;;;;;;68.63;40.97;;;;;;;-2.47;48.48;101551.20;1629149;87;21087;-90
2022/03/12 04:24:06;;;;;;;76.37;40.70;;;;;;;-2.51;48.50;101546.21;1612190;87;21175;-89
2022/03/12 04:26:35;;;;;;;55.17;31.73;;;;;;;-2.57;48.63;101543.44;1608849;88;21720;-88
2022/03/12 04:29:08;;;;;;;58.70;35.27;;;;;;;-2.59;48.56;101543.51;1609130;88;21052;-89
2022/03/12 04:31:35;;;;;;;86.10;46.03;;;;;;;-2.63;48.41;101536.75;1608975;88;21138;-89
2022/03/12 04:34:02;;;;;;;87.17;45.57;;;;;;;-2.68;48.34;101532.20;1620838;84;21000;-88
2022/03/12 04:36:34;;;;;;;88.15;43.17;;;;;;;-2.69;48.47;101525.74;1619600;84;21157;-89
2022/03/12 04:39:03;;;;;;;90.33;49.13;;;;;;;-2.67;48.52;101534.38;1612293;85;21007;-89
2022/03/12 04:41:35;;;;;;;101.83;50.50;;;;;;;-2.63;48.57;101532.00;1609426;88;21061;-89
2022/03/12 04:43:59;;;;;;;85.77;47.97;;;;;;;-2.53;48.27;101535.00;1608843;87;21546;-89
2022/03/12 04:46:29;;;;;;;91.17;47.77;;;;;;;-2.31;48.57;101534.34;1625918;86;21069;-88
2022/03/12 04:48:56;;;;;;;81.97;43.80;;;;;;;-1.92;48.33;101536.31;1592006;88;21037;-89
2022/03/12 04:51:23;;;;;;;86.30;41.57;;;;;;;-1.48;46.87;101531.41;1595915;88;21585;-89
2022/03/12 04:53:58;;;;;;;63.60;36.28;;;;;;;-1.05;46.81;101532.19;1609140;88;21118;-90
2022/03/12 04:56:26;;;;;;;61.33;34.03;;;;;;;-0.46;45.55;101527.98;1592031;88;21425;-90
2022/03/12 04:58:55;;;;;;;60.33;30.73;;;;;;;0.17;44.71;101530.00;1581072;90;21089;-88
2022/03/12 05:01:26;;;;;;;49.90;26.50;;;;;;;0.83;42.29;101520.75;1628085;86;21592;-89
2022/03/12 05:03:53;;;;;;;52.97;30.30;;;;;;;1.03;41.44;101521.27;1608150;88;21157;-89
2022/03/12 05:06:23;;;;;;;50.23;28.50;;;;;;;0.82;40.79;101527.40;1605842;88;21148;-89
2022/03/12 05:08:50;;;;;;;60.60;28.57;;;;;;;0.45;41.28;101526.56;1607054;88;21591;-89
2022/03/12 05:11:17;;;;;;;47.07;24.77;;;;;;;0.21;41.58;101531.98;1603355;88;21104;-89
2022/03/12 05:13:44;;;;;;;57.58;25.70;;;;;;;-0.06;41.66;101534.00;1607409;88;21097;-89
2022/03/12 05:16:13;;;;;;;50.87;25.93;;;;;;;-0.40;42.13;101532.02;1605479;88;21030;-89
2022/03/12 05:18:40;;;;;;;46.80;23.53;;;;;;;-0.75;42.65;101532.70;1608664;89;21596;-88
2022/03/12 05:21:07;;;;;;;52.85;28.83;;;;;;;-1.04;43.23;101532.55;1609226;88;21424;-89
2022/03/12 05:23:35;;;;;;;57.03;31.40;;;;;;;-1.31;43.78;101534.42;1609379;86;21081;-89
2022/03/12 05:26:06;;;;;;;48.57;29.67;;;;;;;-1.53;44.40;101531.27;1610868;86;21603;-88
2022/03/12 05:28:37;;;;;;;50.73;27.33;;;;;;;-1.71;44.95;101524.77;1608128;88;21572;-88
2022/03/12 05:31:08;;;;;;;47.63;26.40;;;;;;;-1.77;45.45;101523.33;1608777;88;21061;-90
2022/03/12 05:33:39;;;;;;;44.77;26.60;;;;;;;-1.40;45.37;101521.84;1594049;88;21053;-89
2022/03/12 05:36:07;;;;;;;49.93;28.73;;;;;;;-0.69;44.42;101516.67;1616513;88;21053;-90
2022/03/12 05:38:37;;;;;;;52.63;27.80;;;;;;;0.21;43.14;101512.31;1610002;88;21752;-90
2022/03/12 05:41:10;;;;;;;61.97;28.50;;;;;;;1.09;40.53;101511.23;1608363;88;21084;-90
2022/03/12 05:43:44;;;;;;;52.63;27.87;;;;;;;1.70;38.79;101507.69;1610539;85;21090;-89
2022/03/12 05:46:05;;;;;;;56.37;28.70;;;;;;;2.34;38.38;101506.89;1640599;84;21153;-91
2022/03/12 05:48:32;;;;;;;46.10;26.77;;;;;;;3.10;36.19;101511.14;1650503;86;20989;-91
2022/03/12 05:50:59;;;;;;;;;;;;;;;3.55;36.16;101503.94;1648498;87;21048;-90
2022/03/12 05:53:28;;;;;;;55.73;29.13;;;;;;;4.20;35.11;101506.97;1638436;87;20203;-91
2022/03/12 05:55:54;;;;;;;49.57;28.43;;;;;;;4.85;34.02;101497.01;1649606;86;21190;-90
2022/03/12 05:58:23;;;;;;;55.23;30.07;;;;;;;5.50;32.51;101500.19;1650659;87;21856;-89
2022/03/12 06:00:54;;;;;;;60.27;30.80;;;;;;;6.11;32.33;101491.11;1635517;86;21175;-90
2022/03/12 06:03:24;;;;;;;56.60;31.10;;;;;;;6.70;31.01;101488.22;1604838;89;21654;-89
2022/03/12 06:05:56;;;;;;;57.80;32.97;;;;;;;7.00;29.84;101488.64;1603782;88;22354;-90
2022/03/12 06:08:24;;;;;;;52.77;31.40;;;;;;;7.16;29.20;101492.10;1603521;89;21072;-90
2022/03/12 06:10:55;;;;;;;59.90;31.67;;;;;;;7.19;29.21;101488.33;1606081;88;21085;-92
2022/03/12 06:13:29;;;;;;;48.07;29.67;;;;;;;7.12;29.24;101490.70;1607104;87;21373;-90
2022/03/12 06:15:58;;;;;;;53.13;30.90;;;;;;;7.16;29.25;101486.80;1606607;87;21120;-91
2022/03/12 06:18:33;;;;;;;53.73;31.43;;;;;;;7.31;29.02;101487.70;1587097;89;21596;-89
2022/03/12 06:21:05;;;;;;;48.50;29.10;;;;;;;7.35;28.76;101483.81;1605008;89;21097;-91
2022/03/12 06:23:32;;;;;;;45.83;29.20;;;;;;;7.44;28.36;101482.98;1604294;88;21132;-90
2022/03/12 06:25:59;;;;;;;52.07;27.13;;;;;;;7.42;28.17;101483.58;1604504;89;21128;-90
2022/03/12 06:28:27;;;;;;;42.17;27.60;;;;;;;7.36;28.35;101479.67;1603782;89;21167;-91
2022/03/12 06:30:54;;;;;;;40.50;26.13;;;;;;;7.47;28.18;101472.07;1604064;89;21052;-91
2022/03/12 06:33:21;;;;;;;38.75;25.30;;;;;;;7.37;27.98;101478.71;1603664;87;21042;-89
2022/03/12 06:35:52;;;;;;;45.60;25.17;;;;;;;7.37;28.04;101475.23;1573976;90;21525;-90
2022/03/12 06:38:20;;;;;;;40.63;25.67;;;;;;;7.17;27.84;101472.55;1573860;90;21629;-91
2022/03/12 06:40:47;;;;;;;37.23;24.77;;;;;;;6.69;28.34;101474.64;1604050;88;21672;-92
2022/03/12 06:43:19;;;;;;;35.63;23.53;;;;;;;5.96;28.98;101470.75;1602450;88;21061;-90
2022/03/12 06:45:44;;;;;;;39.47;22.80;;;;;;;5.01;30.11;101468.89;1623797;87;21061;-89
2022/03/12 06:48:11;;;;;;;40.40;25.27;;;;;;;4.29;31.35;101475.91;1640321;87;21040;-91
2022/03/12 06:50:37;;;;;;;36.83;23.30;;;;;;;3.80;31.97;101473.09;1628894;87;21112;-89
2022/03/12 06:53:06;;;;;;;31.40;20.80;;;;;;;3.37;32.62;101473.67;1629026;87;21546;-91
2022/03/12 06:55:33;;;;;;;31.60;20.47;;;;;;;3.03;33.21;101473.51;1641613;86;22384;-89
2022/03/12 06:58:00;;;;;;;32.23;20.40;;;;;;;2.76;33.79;101474.55;1641772;86;21045;-90
2022/03/12 07:00:30;;;;;;;33.42;21.95;;;;;;;2.50;34.38;101471.96;1640798;84;21009;-89
2022/03/12 07:03:01;;;;;;;29.47;19.20;;;;;;;2.23;34.79;101474.75;1635777;84;21045;-90
2022/03/12 07:05:28;;;;;;;31.17;19.33;;;;;;;2.07;35.41;101469.72;1632494;85;21087;-90
2022/03/12 07:07:57;;;;;;;30.90;17.97;;;;;;;1.99;35.56;101465.44;1635995;86;21086;-91
2022/03/12 07:10:26;;;;;;;22.50;14.40;;;;;;;1.96;35.50;101459.09;1640961;87;21027;-90
2022/03/12 07:12:52;;;;;;;20.27;14.67;;;;;;;1.82;35.55;101458.69;1596774;86;21100;-88
2022/03/12 07:15:22;;;;;;;25.13;15.83;;;;;;;1.65;35.40;101458.52;1602382;87;21104;-90
2022/03/12 07:17:50;;;;;;;25.93;15.37;;;;;;;1.61;35.79;101455.73;1609377;87;21120;-91
2022/03/12 07:20:17;;;;;;;23.63;14.97;;;;;;;1.67;36.02;101456.63;1606124;87;22313;-89
2022/03/12 07:22:46;;;;;;;23.13;15.47;;;;;;;1.70;36.24;101450.34;1620129;87;20995;-90
2022/03/12 07:25:14;;;;;;;26.50;14.97;;;;;;;1.66;36.31;101454.13;1645760;86;21044;-89
2022/03/12 07:27:45;;;;;;;22.77;15.50;;;;;;;1.63;36.29;101446.43;1636904;83;21059;-89
2022/03/12 07:30:14;;;;;;;25.07;15.77;;;;;;;1.58;36.38;101444.58;1639598;83;21005;-90
2022/03/12 07:32:43;;;;;;;22.40;15.30;;;;;;;1.64;36.51;101446.78;1637956;84;21136;-90
2022/03/12 07:35:13;;;;;;;21.23;13.67;;;;;;;1.61;36.59;101427.30;1615200;84;20998;-90
2022/03/12 07:37:42;;;;;;;27.03;15.17;;;;;;;1.60;36.35;101427.78;1638761;83;21330;-87
2022/03/12 07:40:12;;;;;;;24.13;15.47;;;;;;;1.58;36.50;101431.44;1636768;84;21101;-89
2022/03/12 07:42:42;;;;;;;18.37;13.80;;;;;;;1.60;36.42;101434.80;1644881;87;21095;-91
2022/03/12 07:45:09;;;;;;;22.03;13.57;;;;;;;1.62;36.44;101420.63;1634499;86;21057;-89
2022/03/12 07:47:38;;;;;;;17.27;12.50;;;;;;;1.71;36.46;101416.52;1645762;84;21045;-88
2022/03/12 07:50:07;;;;;;;24.07;15.27;;;;;;;1.79;36.94;101413.36;1637918;83;21078;-89
2022/03/12 07:52:34;;;;;;;25.27;16.07;;;;;;;1.91;36.49;101408.11;1633208;84;21007;-90
2022/03/12 07:55:02;;;;;;;25.50;14.93;;;;;;;1.98;36.64;101416.87;1637668;87;21521;-90
2022/03/12 07:57:29;;;;;;;19.27;14.60;;;;;;;2.08;36.72;101411.38;1633288;86;21077;-90
2022/03/12 07:59:57;;;;;;;21.90;13.87;;;;;;;2.16;36.48;101405.09;1634764;87;21567;-90
2022/03/12 08:02:24;;;;;;;24.33;15.17;;;;;;;2.27;36.29;101400.39;1644749;86;21052;-90
2022/03/12 08:04:50;;;;;;;24.72;15.15;;;;;;;2.35;36.09;101404.62;1640819;86;21018;-90
2022/03/12 08:07:19;;;;;;;29.90;16.15;;;;;;;2.41;36.04;101401.59;1627304;88;21013;-89
2022/03/12 08:09:47;;;;;;;27.53;15.67;;;;;;;2.49;35.98;101390.02;1609027;88;21518;-90
2022/03/12 08:12:15;;;;;;;27.53;16.37;;;;;;;2.59;35.98;101397.27;1608669;88;21118;-90
2022/03/12 08:14:45;;;;;;;28.83;14.97;;;;;;;2.61;35.61;101388.78;1609255;88;21115;-89
2022/03/12 08:17:14;;;;;;;27.97;15.47;;;;;;;2.57;35.36;101383.38;1609264;88;20974;-90
2022/03/12 08:19:44;;;;;;;23.27;16.17;;;;;;;2.57;35.51;101386.01;1609614;88;21623;-90
2022/03/12 08:22:13;;;;;;;26.17;15.13;;;;;;;2.60;35.54;101387.08;1608987;87;21079;-90
2022/03/12 08:24:40;;;;;;;32.20;15.83;;;;;;;2.59;35.51;101379.67;1609071;88;21121;-89
2022/03/12 08:27:10;;;;;;;;;;;;;;;2.56;35.55;101376.42;1598561;89;20994;-89
2022/03/12 08:29:36;;;;;;;26.93;16.07;;;;;;;2.56;35.60;101378.56;1609033;89;20135;-91
2022/03/12 08:32:08;;;;;;;30.55;15.28;;;;;;;2.53;35.05;101379.64;1609610;88;21646;-90
2022/03/12 08:34:35;;;;;;;25.30;14.17;;;;;;;2.50;35.03;101376.37;1636368;87;21048;-90
2022/03/12 08:37:06;;;;;;;26.83;14.63;;;;;;;2.50;35.06;101373.75;1635665;84;21118;-89
2022/03/12 08:39:38;;;;;;;35.50;15.43;;;;;;;2.53;35.05;101370.42;1632381;83;21081;-89
2022/03/12 08:42:05;;;;;;;25.63;15.33;;;;;;;2.52;35.09;101366.13;1641195;85;21008;-90
2022/03/12 08:44:32;;;;;;;22.60;13.23;;;;;;;2.58;35.26;101365.30;1631724;86;21170;-91
2022/03/12 08:46:58;;;;;;;21.17;13.15;;;;;;;2.67;35.24;101371.22;1630405;87;21027;-89
2022/03/12 08:49:27;;;;;;;19.47;12.80;;;;;;;2.75;34.70;101364.07;1630204;87;21056;-90
2022/03/12 08:51:54;;;;;;;18.83;11.77;;;;;;;2.81;34.91;101364.95;1608362;89;21069;-90
2022/03/12 08:54:20;;;;;;;19.32;12.18;;;;;;;2.89;34.80;101362.59;1609957;89;21052;-90
2022/03/12 08:56:48;;;;;;;21.83;10.63;;;;;;;3.01;34.68;101355.56;1610973;86;21049;-92
2022/03/12 08:59:14;;;;;;;;;;;;;;;3.06;34.32;101356.91;1606131;89;21037;-89
2022/03/12 09:01:46;;;;;;;11.15;7.45;;;;;;;3.12;34.00;101353.80;1609729;88;20110;-90
2022/03/12 09:04:14;;;;;;;13.37;7.60;;;;;;;3.16;33.52;101345.19;1640789;87;21851;-90
2022/03/12 09:06:41;;;;;;;12.20;7.20;;;;;;;3.20;33.21;101344.48;1632446;87;21224;-89
2022/03/12 09:09:08;;;;;;;11.77;6.67;;;;;;;3.25;33.18;101337.91;1636683;87;21088;-90
2022/03/12 09:11:40;;;;;;;11.40;6.60;;;;;;;3.32;33.07;101329.08;1643408;86;21016;-92
2022/03/12 09:14:11;;;;;;;16.37;7.30;;;;;;;3.44;33.23;101335.20;1629552;87;21105;-91
2022/03/12 09:16:41;;;;;;;8.60;5.73;;;;;;;3.58;33.23;101330.17;1639081;87;21127;-89
2022/03/12 09:19:11;;;;;;;9.30;6.70;;;;;;;3.68;32.81;101325.89;1634316;87;21085;-90
2022/03/12 09:21:43;;;;;;;9.23;6.00;;;;;;;3.73;31.94;101324.20;1635866;87;21079;-89
2022/03/12 09:24:11;;;;;;;9.73;6.40;;;;;;;3.77;31.94;101324.31;1628478;86;21056;-90
2022/03/12 09:26:40;;;;;;;10.23;7.33;;;;;;;3.85;31.91;101315.34;1604154;85;21173;-90
2022/03/12 09:29:09;;;;;;;8.00;6.83;;;;;;;3.93;31.85;101320.01;1641645;87;21092;-89
2022/03/12 09:31:36;;;;;;;12.60;7.70;;;;;;;4.01;31.70;101319.77;1635712;87;21072;-90
2022/03/12 09:34:06;;;;;;;9.43;7.97;;;;;;;4.11;31.47;101309.32;1644377;87;21020;-90
2022/03/12 09:36:36;;;;;;;10.00;7.43;;;;;;;4.19;30.64;101306.90;1618692;88;21062;-90
2022/03/12 09:39:06;;;;;;;8.60;6.83;;;;;;;4.20;30.38;101294.08;1611718;87;21039;-90
2022/03/12 09:41:38;;;;;;;8.43;6.23;;;;;;;4.17;29.37;101301.40;1625728;88;21121;-91
2022/03/12 09:44:06;;;;;;;9.03;6.83;;;;;;;4.12;29.04;101289.88;1632698;87;21080;-89
2022/03/12 09:46:37;;;;;;;8.57;6.10;;;;;;;4.10;29.17;101288.67;1625354;87;21086;-90
2022/03/12 09:49:05;;;;;;;9.00;6.10;;;;;;;4.18;28.36;101285.91;1625145;87;21505;-90
2022/03/12 09:51:32;;;;;;;8.73;6.20;;;;;;;4.18;28.46;101288.55;1633041;88;20985;-89
2022/03/12 09:54:06;;;;;;;6.27;4.83;;;;;;;4.15;28.87;101286.17;1628361;88;21104;-91
2022/03/12 09:56:35;;;;;;;5.92;5.08;;;;;;;4.20;29.12;101281.34;1637249;87;21049;-90
2022/03/12 09:59:05;;;;;;;5.07;4.50;;;;;;;4.27;29.02;101282.53;1584233;88;21043;-91
2022/03/12 10:01:35;;;;;;;10.37;4.73;;;;;;;4.32;28.86;101273.77;1631271;86;21058;-90
2022/03/12 10:04:03;;;;;;;6.70;4.90;;;;;;;4.39;28.24;101277.58;1632838;87;21040;-90
2022/03/12 10:06:32;;;;;;;5.73;4.40;;;;;;;4.42;28.07;101275.16;1625081;87;21037;-89
2022/03/12 10:09:05;;;;;;;5.40;3.80;;;;;;;4.45;28.22;101273.12;1625769;87;21401;-89
2022/03/12 10:11:41;;;;;;;8.23;3.60;;;;;;;4.47;28.04;101265.91;1640495;83;20965;-90
2022/03/12 10:14:12;;;;;;;3.93;3.27;;;;;;;4.46;28.18;101264.70;1635010;83;21082;-89
2022/03/12 10:16:41;;;;;;;4.23;3.83;;;;;;;4.45;28.44;101259.09;1630619;87;21101;-89
2022/03/12 10:19:09;;;;;;;4.30;3.87;;;;;;;4.52;28.51;101259.41;1597059;89;21094;-90
2022/03/12 10:21:42;;;;;;;3.63;3.33;;;;;;;4.56;28.67;101258.18;1625240;88;21195;-90
2022/03/12 10:24:07;;;;;;;5.63;4.33;;;;;;;4.59;28.65;101251.34;1614611;87;21047;-90
2022/03/12 10:26:37;;;;;;;7.77;4.97;;;;;;;4.62;28.54;101247.13;1630842;87;21129;-88
2022/03/12 10:29:06;;;;;;;8.07;4.77;;;;;;;4.70;28.75;101245.17;1596748;90;21085;-89
2022/03/12 10:31:42;;;;;;;6.40;4.47;;;;;;;4.74;28.39;101235.53;1640684;87;21115;-91
2022/03/12 10:35:22;;;;;;;4.63;3.67;;;;;;;4.72;28.68;101232.19;1735481;78;22252;-69
2022/03/12 10:37:53;;;;;;;5.13;3.37;;;;;;;4.65;28.76;101231.02;1703390;83;21067;-68
2022/03/12 10:40:25;;;;;;;8.00;4.80;;;;;;;4.71;29.06;101225.70;1701839;83;21057;-66
2022/03/12 10:43:05;;;;;;;6.30;4.87;;;;;;;4.77;29.13;101225.22;1673174;83;21021;-66
2022/03/12 10:45:45;;;;;;;8.60;4.57;;;;;;;4.76;29.09;101217.75;1686532;82;20973;-66
2022/03/12 10:48:14;;;;;;;6.07;5.03;;;;;;;4.77;29.61;101204.91;1673333;84;21041;-66
2022/03/12 10:50:44;;;;;;;5.17;4.33;;;;;;;4.83;29.85;101212.80;1669561;84;21578;-69
2022/03/12 10:53:12;;;;;;;7.43;5.33;;;;;;;4.88;29.67;101198.73;1652174;84;21090;-66
2022/03/12 10:55:45;;;;;;;5.37;4.67;;;;;;;4.90;29.85;101199.44;1665090;84;21162;-72
2022/03/12 10:58:17;;;;;;;8.43;5.67;;;;;;;4.87;30.03;101195.23;1675924;84;21024;-67
2022/03/12 11:00:55;;;;;;;9.33;5.27;;;;;;;4.63;30.58;101202.58;1668930;84;21045;-67
2022/03/12 11:03:31;;;;;;;5.47;4.43;;;;;;;4.51;30.89;101197.02;1654447;84;21092;-66
2022/03/12 11:05:59;;;;;;;4.50;3.97;;;;;;;4.41;31.11;101189.86;1642848;84;21045;-67
2022/03/12 11:08:29;;;;;;;6.10;4.43;;;;;;;4.33;31.74;101190.95;1644824;84;21138;-66
2022/03/12 11:11:01;;;;;;;6.47;4.67;;;;;;;4.32;31.93;101182.70;1640066;84;21085;-66
2022/03/12 11:13:43;;;;;;;5.10;4.53;;;;;;;4.32;32.08;101185.34;1672250;84;21213;-67
2022/03/12 11:16:32;;;;;;;7.40;5.37;;;;;;;4.36;32.15;101181.97;1669186;84;22144;-69
2022/03/12 11:19:07;;;;;;;11.20;6.03;;;;;;;4.26;32.16;101181.89;1655062;84;21401;-67
2022/03/12 11:21:53;;;;;;;6.73;5.63;;;;;;;4.21;32.78;101181.43;1641659;84;21076;-65
2022/03/12 11:24:29;;;;;;;9.40;6.50;;;;;;;4.22;32.65;101183.09;1642538;85;21829;-71
2022/03/12 11:27:06;;;;;;;7.27;5.50;;;;;;;4.28;32.83;101176.84;1602764;87;21113;-71
2022/03/12 11:29:30;;;;;;;6.70;4.97;;;;;;;4.41;33.03;101181.94;1589649;89;21037;-66